General Mariano Escobedo International Airport
MMMY : now visible

Airfield :











YOU CAN JOIN US ON...

 
LOGIN :

Register | Disclaimer

   EN    FR    IT 

 









Legend :    VFR   Marginal VFR   IFR   Intensive IFR   Very Intensive IFR
Visi :
Ceiling :
>= 8 km
>= 3000ft
5 to 8 km
1000 to 3000 ft
1500m to 5 km
500 to 1000 ft
800 to 1500m
200 to 500 ft
< 800m
< 200 ft
Symbols :   Thunderstorms  Fog  Heavy snow  Heavy precipitations  Wind > 20 kt






- Airport Elevation : 1278 ft
- IATA code : MTY


MMMY - General Mariano Escobedo International

CURRENT METAR :
  • 220340Z 10010KT 2SM -DZ BR OVC003 13/12 A3018 RMK 60065 8/7//

EXPIRED METARs :
  • 220307Z 12007KT 1SM -DZ BR OVC003 12/12 A3020 RMK 8/7//
  • 220229Z 12009KT 2SM -RA OVC015 12/12 A3020 RMK 8/5// -DZE20-RAB20
  • 220153Z 12009KT 6SM -DZ OVC015 12/12 A3021 RMK 8/5// -DZB52

TAF AMD TAF MMMY
Valid from the 22 at 03:00 until the 23 at 06:00 UTC


220325Z 2203/2306 12005KT 1SM -DZ BR OVC003 TX19/2221Z TN11/2212Z
TEMPO 2206/2210 1/2SM FG DZ VV002
FM221000 00000KT 2SM BR BKN005 OVC010
TEMPO 2212/2216 1SM BR BKN003 OVC005
FM221600 22005KT 4SM HZ SCT015 OVC020
FM222000 15005KT P6SM SCT020 BKN250



MET'MAP, your aeronautical weather chart ! - Copyright ORBIFLY December 2007 - Disclaimer

ORBIFLY MET'MAP TEAM :

Programming & Development : Alexandra Zaïnal
Concept & original design : Baudouin d'Aumeries
Assistance for programming : Marc-Olivier Méhu
Technical & hardware support : Manuel Goepfert

Contact : metmap@orbifly.com




SOURCES & CREDITS :

   NOAA       Earth
Advisory